»·PEaware :: AAL614 KPHL-KMBS

AAL614 :: KPHL-KMBS

FLIGHT INFORMATION

Flight Status: Arrived
Operator:
American Airlines
More flights by this operator :: More flights under this callsign
Pilot: John H. (7647)
Aircraft: BOEING 737-800
(B738)
More flights by this aircraft type
Origin: KPHL Philadelphia Intl
United States
Destination: KMBS Mbs Intl
United States
More flights between these airports :: More routes between these airports
Route: PTW SARAA RAV PSB J60 DJB DXO
File this flight plan on PilotEdge
Remarks:
Altitude:
(Current/Filed)
34,000ft
Speed:
(Current/Filed)
466kts
Departed: 14-Sep-18 09:57 AM
Arrived: 14-Sep-18 11:30 AM
Distance/Time
Traveled:
452nm/1:33
Distance/Time
To Go:
Arrived

Flight Plot

Page will automatically refresh every two minutes.

Flight plan parsing failed; only flown route is shown


Map Options




Map Legend


Flown Route
Filed Route
Departure Airport
Arrival Airport
Navaid (VOR, NDB)
Fix

Horizontal Profiles

Position Reports

Time Latitude Longitude Heading Altitude Ground
Speed
14-Sep-18 09:42 39.880450 -75.235767 215 11ft 0kts
14-Sep-18 09:43 39.880450 -75.235767 215 11ft 0kts
14-Sep-18 09:44 39.880450 -75.235767 215 11ft 0kts
14-Sep-18 09:45 39.880450 -75.235767 215 11ft 0kts
14-Sep-18 09:46 39.880450 -75.235767 215 11ft 0kts
14-Sep-18 09:47 39.880450 -75.235767 215 11ft 0kts
14-Sep-18 09:48 39.880450 -75.235767 215 11ft 0kts
14-Sep-18 09:49 39.880450 -75.235767 215 11ft 0kts
14-Sep-18 09:50 39.880638 -75.235594 215 11ft 2kts
14-Sep-18 09:51 39.881088 -75.235183 208 11ft 2kts
14-Sep-18 09:52 39.881295 -75.235198 158 11ft 0kts
14-Sep-18 09:53 39.881283 -75.235191 158 11ft 0kts
14-Sep-18 09:54 39.879897 -75.233721 158 11ft 13kts
14-Sep-18 09:55 39.874989 -75.231559 194 11ft 25kts
14-Sep-18 09:56 39.872773 -75.240551 254 11ft 34kts
14-Sep-18 09:57 39.870065 -75.254180 256 17ft 38kts
14-Sep-18 09:58 39.868943 -75.254270 79 17ft 2kts
14-Sep-18 09:59 39.874935 -75.224822 73 240ft 153kts
14-Sep-18 10:00 39.890173 -75.170669 35 602ft 218kts
14-Sep-18 10:01 39.953499 -75.184997 299 2946ft 273kts
14-Sep-18 10:02 39.982699 -75.276494 292 5530ft 280kts
14-Sep-18 10:03 40.012088 -75.371533 302 7940ft 286kts
14-Sep-18 10:04 40.073724 -75.432817 328 10230ft 285kts
14-Sep-18 10:05 40.141416 -75.490968 325 11668ft 314kts
14-Sep-18 10:06 40.215955 -75.555407 323 13563ft 328kts
14-Sep-18 10:07 40.278417 -75.642931 308 15521ft 336kts
14-Sep-18 10:08 40.338925 -75.734643 308 17317ft 347kts
14-Sep-18 10:09 40.402406 -75.830933 307 19074ft 356kts
14-Sep-18 10:10 40.448865 -75.940221 280 20706ft 356kts
14-Sep-18 10:11 40.469200 -76.066293 280 22224ft 363kts
14-Sep-18 10:12 40.490052 -76.196819 280 23638ft 370kts
14-Sep-18 10:13 40.511295 -76.330292 280 24978ft 376kts
14-Sep-18 10:14 40.532258 -76.462574 280 26194ft 381kts
14-Sep-18 10:15 40.553886 -76.599315 283 27330ft 386kts
14-Sep-18 10:16 40.587817 -76.730631 288 28382ft 392kts
14-Sep-18 10:17 40.623872 -76.865812 288 29376ft 396kts
14-Sep-18 10:18 40.659813 -77.001419 288 30630ft 391kts
14-Sep-18 10:19 40.694771 -77.134094 288 31857ft 384kts
14-Sep-18 10:20 40.729132 -77.265229 288 32956ft 377kts
14-Sep-18 10:21 40.762893 -77.394751 288 33920ft 371kts
14-Sep-18 10:22 40.796459 -77.524235 288 34266ft 381kts
14-Sep-18 10:23 40.830912 -77.657824 287 34265ft 400kts
14-Sep-18 10:24 40.866122 -77.795550 287 34265ft 411kts
14-Sep-18 10:25 40.902407 -77.938270 288 34264ft 410kts
14-Sep-18 10:26 40.928476 -78.082318 279 34261ft 410kts
14-Sep-18 10:27 40.946302 -78.229498 279 34263ft 410kts
14-Sep-18 10:28 40.964175 -78.377257 279 34262ft 410kts
14-Sep-18 10:29 40.982057 -78.526000 279 34261ft 410kts
14-Sep-18 10:30 40.997913 -78.659091 279 34262ft 410kts
14-Sep-18 10:31 41.015181 -78.806375 279 34267ft 410kts
14-Sep-18 10:32 41.032443 -78.954637 279 34238ft 410kts
14-Sep-18 10:33 41.049641 -79.104094 279 34234ft 410kts
14-Sep-18 10:34 41.066585 -79.252718 279 34229ft 410kts
14-Sep-18 10:35 41.083396 -79.401723 279 34229ft 410kts
14-Sep-18 10:36 41.099905 -79.549648 279 34231ft 410kts
14-Sep-18 10:37 41.113157 -79.669728 278 34240ft 410kts
14-Sep-18 10:38 41.128963 -79.815516 278 34239ft 410kts
14-Sep-18 10:39 41.144876 -79.963683 278 34239ft 410kts
14-Sep-18 10:40 41.160512 -80.111061 279 34237ft 410kts
14-Sep-18 10:41 41.176208 -80.260456 278 34209ft 410kts
14-Sep-18 10:42 41.191780 -80.410540 279 34208ft 410kts
14-Sep-18 10:43 41.207123 -80.560042 278 34172ft 411kts
14-Sep-18 10:44 41.222275 -80.710089 277 34183ft 428kts
14-Sep-18 10:45 41.237774 -80.866082 277 34185ft 430kts
14-Sep-18 10:46 41.253157 -81.022975 278 34183ft 430kts
14-Sep-18 10:47 41.268343 -81.180152 277 34182ft 430kts
14-Sep-18 10:48 41.283369 -81.337603 278 34181ft 431kts
14-Sep-18 10:49 41.297971 -81.493421 278 34182ft 431kts
14-Sep-18 10:50 41.312525 -81.650764 278 34182ft 441kts
14-Sep-18 10:51 41.327285 -81.812948 278 34187ft 458kts
14-Sep-18 10:52 41.342048 -81.977841 278 34210ft 458kts
14-Sep-18 10:53 41.363110 -82.141362 294 34200ft 454kts
14-Sep-18 10:54 41.433485 -82.268622 316 34183ft 447kts
14-Sep-18 10:55 41.518844 -82.386158 316 34177ft 447kts
14-Sep-18 10:56 41.603627 -82.503893 316 34183ft 447kts
14-Sep-18 10:57 41.688516 -82.622429 315 34183ft 447kts
14-Sep-18 10:58 41.772787 -82.740691 315 34181ft 445kts
14-Sep-18 10:59 41.856653 -82.858926 315 34154ft 442kts
14-Sep-18 11:00 41.941105 -82.978480 315 34149ft 442kts
14-Sep-18 11:01 42.025448 -83.098431 315 30853ft 440kts
14-Sep-18 11:02 42.108661 -83.217169 315 28033ft 454kts
14-Sep-18 11:03 42.197261 -83.330346 331 25142ft 449kts
14-Sep-18 11:04 42.301317 -83.410236 340 22673ft 435kts
14-Sep-18 11:05 42.414047 -83.456398 340 20053ft 416kts
14-Sep-18 11:06 42.517782 -83.501238 342 17647ft 397kts
14-Sep-18 11:07 42.620432 -83.546048 340 15067ft 384kts
14-Sep-18 11:08 42.723658 -83.591614 342 12730ft 391kts
14-Sep-18 11:09 42.822115 -83.635376 344 11524ft 349kts
14-Sep-18 11:10 42.908622 -83.673843 343 10924ft 323kts
14-Sep-18 11:11 42.974822 -83.703383 344 10364ft 284kts
14-Sep-18 11:12 43.054580 -83.739092 344 9763ft 235kts
14-Sep-18 11:13 43.103966 -83.761208 343 9335ft 235kts
14-Sep-18 11:14 43.164737 -83.788433 342 8393ft 229kts
14-Sep-18 11:15 43.232648 -83.818903 341 7361ft 216kts
14-Sep-18 11:16 43.279719 -83.840121 341 6680ft 213kts
14-Sep-18 11:17 43.331676 -83.863572 341 5880ft 192kts
14-Sep-18 11:18 43.379626 -83.885260 341 5218ft 187kts
14-Sep-18 11:19 43.428936 -83.907574 341 4594ft 186kts
14-Sep-18 11:20 43.477177 -83.929486 341 3927ft 184kts
14-Sep-18 11:21 43.524713 -83.951163 341 3306ft 172kts
14-Sep-18 11:22 43.570203 -83.971924 338 2681ft 173kts
14-Sep-18 11:23 43.574917 -84.025978 227 1619ft 170kts
14-Sep-18 11:24 43.573737 -84.027639 227 1582ft 170kts
14-Sep-18 11:25 43.573737 -84.027639 227 1582ft 170kts
14-Sep-18 11:26 43.573737 -84.027639 227 1582ft 170kts
14-Sep-18 11:27 43.573737 -84.027639 227 1582ft 170kts
14-Sep-18 11:28 43.573737 -84.027639 227 1582ft 170kts
14-Sep-18 11:29 43.573737 -84.027639 227 1582ft 170kts
14-Sep-18 11:30 43.573737 -84.027639 227 1582ft 170kts
14-Sep-18 11:31 43.560701 -84.042196 216 1284ft 160kts
14-Sep-18 11:32 43.537691 -84.073252 330 652ft 0kts

Navigation Log

Ident Type
Flight plan parsing failed, navigation log unavailable